ROG2RR LESO-LEXJ
Flight info
| Callsign | ROG2RR |
|---|---|
| Flight time | 0h 50m |
| Altitude | 10000 |
| Route | BLV |
| Aircraft | DA42/L-SBDFGRY/C |
Departure
| Time | 2026-05-08 12:26 |
|---|---|
| Airport | San Sebastián Airport (LESO) |
Arrival
| Time | 2026-05-08 13:16 |
|---|---|
| Airport | Seve Ballesteros-Santander Airport (LEXJ) |
| Time | Latitude | Longitude | Altitude | Speed | Heading |
|---|---|---|---|---|---|
| 2026-05-08 11:50 | 43.35520 | -1.79382 | 11 ft | 0 kts | 129° |
| 2026-05-08 11:55 | 43.35521 | -1.79382 | 11 ft | 0 kts | 129° |
| 2026-05-08 11:56 | 43.35520 | -1.79382 | 11 ft | 0 kts | 129° |
| 2026-05-08 12:21 | 43.35514 | -1.79370 | 11 ft | 4 kts | 115° |
| 2026-05-08 12:21 | 43.35520 | -1.79322 | 12 ft | 7 kts | 41° |
| 2026-05-08 12:22 | 43.35540 | -1.79286 | 12 ft | 0 kts | 79° |
| 2026-05-08 12:22 | 43.35536 | -1.79269 | 12 ft | 6 kts | 127° |
| 2026-05-08 12:23 | 43.35514 | -1.79234 | 13 ft | 0 kts | 136° |
| 2026-05-08 12:23 | 43.35472 | -1.79253 | 13 ft | 12 kts | 218° |
| 2026-05-08 12:23 | 43.35385 | -1.79347 | 14 ft | 18 kts | 220° |
| 2026-05-08 12:24 | 43.35290 | -1.79454 | 15 ft | 17 kts | 219° |
| 2026-05-08 12:24 | 43.35197 | -1.79556 | 15 ft | 17 kts | 219° |
| 2026-05-08 12:24 | 43.35103 | -1.79661 | 14 ft | 15 kts | 233° |
| 2026-05-08 12:24 | 43.35076 | -1.79748 | 14 ft | 9 kts | 210° |
| 2026-05-08 12:25 | 43.35051 | -1.79717 | 14 ft | 0 kts | 34° |
| 2026-05-08 12:25 | 43.35178 | -1.79578 | 15 ft | 54 kts | 39° |
| 2026-05-08 12:25 | 43.35583 | -1.79136 | 39 ft | 87 kts | 41° |
| 2026-05-08 12:26 | 43.36051 | -1.78634 | 259 ft | 86 kts | 44° |
| 2026-05-08 12:26 | 43.36526 | -1.78094 | 375 ft | 93 kts | 46° |
| 2026-05-08 12:26 | 43.37071 | -1.77634 | 598 ft | 96 kts | 29° |
| 2026-05-08 12:26 | 43.37693 | -1.77270 | 833 ft | 102 kts | 24° |
| 2026-05-08 12:27 | 43.38357 | -1.76866 | 991 ft | 104 kts | 28° |
| 2026-05-08 12:27 | 43.39011 | -1.76464 | 1247 ft | 103 kts | 27° |
| 2026-05-08 12:27 | 43.39659 | -1.76070 | 1504 ft | 103 kts | 30° |
| 2026-05-08 12:27 | 43.40328 | -1.75660 | 1714 ft | 106 kts | 26° |
| 2026-05-08 12:28 | 43.41034 | -1.75229 | 1872 ft | 117 kts | 29° |
| 2026-05-08 12:28 | 43.41763 | -1.74785 | 2127 ft | 115 kts | 29° |
| 2026-05-08 12:28 | 43.42510 | -1.74427 | 2390 ft | 114 kts | 10° |
| 2026-05-08 12:28 | 43.43302 | -1.74528 | 2618 ft | 116 kts | 337° |
| 2026-05-08 12:29 | 43.43965 | -1.75106 | 2859 ft | 111 kts | 306° |
| 2026-05-08 12:29 | 43.44354 | -1.75973 | 3103 ft | 103 kts | 277° |
| 2026-05-08 12:29 | 43.44442 | -1.76906 | 3343 ft | 95 kts | 254° |
| 2026-05-08 12:29 | 43.44380 | -1.77794 | 3572 ft | 95 kts | 253° |
| 2026-05-08 12:30 | 43.44314 | -1.78692 | 3813 ft | 94 kts | 252° |
| 2026-05-08 12:30 | 43.44248 | -1.79591 | 4034 ft | 95 kts | 252° |
| 2026-05-08 12:30 | 43.44182 | -1.80498 | 4264 ft | 96 kts | 252° |
| 2026-05-08 12:30 | 43.44114 | -1.81408 | 4505 ft | 96 kts | 252° |
| 2026-05-08 12:31 | 43.44047 | -1.82318 | 4752 ft | 95 kts | 251° |
| 2026-05-08 12:31 | 43.43979 | -1.83224 | 4990 ft | 95 kts | 251° |
| 2026-05-08 12:31 | 43.43912 | -1.84128 | 5222 ft | 96 kts | 252° |
| 2026-05-08 12:31 | 43.43844 | -1.85047 | 5453 ft | 97 kts | 252° |
| 2026-05-08 12:32 | 43.43776 | -1.85964 | 5655 ft | 97 kts | 252° |
| 2026-05-08 12:32 | 43.43707 | -1.86892 | 5845 ft | 98 kts | 253° |
| 2026-05-08 12:32 | 43.43639 | -1.87823 | 6034 ft | 98 kts | 253° |
| 2026-05-08 12:32 | 43.43570 | -1.88752 | 6251 ft | 97 kts | 253° |
| 2026-05-08 12:33 | 43.43501 | -1.89679 | 6457 ft | 98 kts | 253° |
| 2026-05-08 12:33 | 43.43432 | -1.90610 | 6668 ft | 98 kts | 253° |
| 2026-05-08 12:33 | 43.43364 | -1.91531 | 6917 ft | 95 kts | 255° |
| 2026-05-08 12:33 | 43.43297 | -1.92431 | 7122 ft | 95 kts | 255° |
| 2026-05-08 12:34 | 43.43229 | -1.93331 | 7314 ft | 96 kts | 255° |
| 2026-05-08 12:34 | 43.43161 | -1.94248 | 7514 ft | 97 kts | 255° |
| 2026-05-08 12:34 | 43.43092 | -1.95174 | 7722 ft | 98 kts | 256° |
| 2026-05-08 12:34 | 43.43022 | -1.96107 | 7927 ft | 98 kts | 256° |
| 2026-05-08 12:35 | 43.42951 | -1.97046 | 8127 ft | 99 kts | 256° |
| 2026-05-08 12:35 | 43.42881 | -1.97989 | 8327 ft | 99 kts | 256° |
| 2026-05-08 12:35 | 43.42810 | -1.98939 | 8529 ft | 100 kts | 256° |
| 2026-05-08 12:35 | 43.42738 | -1.99894 | 8741 ft | 101 kts | 256° |
| 2026-05-08 12:36 | 43.42666 | -2.00844 | 8942 ft | 101 kts | 256° |
| 2026-05-08 12:36 | 43.42594 | -2.01811 | 9152 ft | 102 kts | 256° |
| 2026-05-08 12:36 | 43.42520 | -2.02785 | 9364 ft | 103 kts | 256° |
| 2026-05-08 12:36 | 43.42446 | -2.03768 | 9578 ft | 103 kts | 256° |
| 2026-05-08 12:37 | 43.42372 | -2.04754 | 9794 ft | 104 kts | 256° |
| 2026-05-08 12:37 | 43.42293 | -2.05774 | 9897 ft | 114 kts | 257° |
| 2026-05-08 12:37 | 43.42205 | -2.06938 | 9902 ft | 130 kts | 258° |
| 2026-05-08 12:37 | 43.42109 | -2.08226 | 9902 ft | 140 kts | 258° |
| 2026-05-08 12:38 | 43.42008 | -2.09573 | 9898 ft | 147 kts | 258° |
| 2026-05-08 12:38 | 43.41900 | -2.10991 | 9899 ft | 151 kts | 258° |
| 2026-05-08 12:38 | 43.41788 | -2.12437 | 9899 ft | 154 kts | 258° |
| 2026-05-08 12:38 | 43.41639 | -2.13898 | 9891 ft | 154 kts | 253° |
| 2026-05-08 12:39 | 43.41437 | -2.15355 | 9892 ft | 155 kts | 254° |
| 2026-05-08 12:39 | 43.41236 | -2.16819 | 9894 ft | 156 kts | 254° |
| 2026-05-08 12:39 | 43.41032 | -2.18286 | 9894 ft | 156 kts | 254° |
| 2026-05-08 12:39 | 43.40829 | -2.19748 | 9891 ft | 155 kts | 251° |
| 2026-05-08 12:40 | 43.40627 | -2.21189 | 9892 ft | 153 kts | 251° |
| 2026-05-08 12:40 | 43.40427 | -2.22604 | 9891 ft | 153 kts | 253° |
| 2026-05-08 12:40 | 43.40230 | -2.24037 | 9892 ft | 152 kts | 251° |
| 2026-05-08 12:40 | 43.40030 | -2.25459 | 9892 ft | 151 kts | 251° |
| 2026-05-08 12:41 | 43.39822 | -2.26885 | 9890 ft | 153 kts | 253° |
| 2026-05-08 12:41 | 43.39626 | -2.28318 | 9891 ft | 153 kts | 253° |
| 2026-05-08 12:41 | 43.39434 | -2.29752 | 9893 ft | 153 kts | 251° |
| 2026-05-08 12:41 | 43.39226 | -2.31191 | 9889 ft | 153 kts | 251° |
| 2026-05-08 12:42 | 43.39021 | -2.32620 | 9887 ft | 152 kts | 252° |
| 2026-05-08 12:42 | 43.38823 | -2.34031 | 9887 ft | 152 kts | 252° |
| 2026-05-08 12:42 | 43.38622 | -2.35460 | 9888 ft | 153 kts | 252° |
| 2026-05-08 12:42 | 43.38420 | -2.36895 | 9888 ft | 153 kts | 252° |
| 2026-05-08 12:43 | 43.38217 | -2.38328 | 9884 ft | 153 kts | 252° |
| 2026-05-08 12:43 | 43.38014 | -2.39761 | 9885 ft | 153 kts | 252° |
| 2026-05-08 12:43 | 43.37811 | -2.41200 | 9885 ft | 153 kts | 252° |
| 2026-05-08 12:43 | 43.37609 | -2.42634 | 9885 ft | 152 kts | 251° |
| 2026-05-08 12:44 | 43.37406 | -2.44062 | 9888 ft | 152 kts | 251° |
| 2026-05-08 12:44 | 43.37200 | -2.45487 | 9888 ft | 153 kts | 252° |
| 2026-05-08 12:44 | 43.36999 | -2.46920 | 9889 ft | 153 kts | 252° |
| 2026-05-08 12:44 | 43.36801 | -2.48338 | 9889 ft | 153 kts | 251° |
| 2026-05-08 12:45 | 43.36595 | -2.49766 | 9884 ft | 153 kts | 252° |
| 2026-05-08 12:45 | 43.36391 | -2.51203 | 9886 ft | 153 kts | 251° |
| 2026-05-08 12:45 | 43.36185 | -2.52644 | 9885 ft | 154 kts | 251° |
| 2026-05-08 12:45 | 43.35977 | -2.54092 | 9887 ft | 155 kts | 251° |
| 2026-05-08 12:46 | 43.35771 | -2.55542 | 9886 ft | 154 kts | 251° |
| 2026-05-08 12:46 | 43.35565 | -2.56978 | 9889 ft | 153 kts | 252° |
| 2026-05-08 12:46 | 43.35358 | -2.58417 | 9884 ft | 154 kts | 251° |
| 2026-05-08 12:46 | 43.35154 | -2.59848 | 9885 ft | 156 kts | 252° |
| 2026-05-08 12:47 | 43.34947 | -2.61316 | 9883 ft | 156 kts | 252° |
| 2026-05-08 12:47 | 43.34738 | -2.62770 | 9884 ft | 153 kts | 251° |
| 2026-05-08 12:47 | 43.34527 | -2.64211 | 9885 ft | 155 kts | 251° |
| 2026-05-08 12:47 | 43.34317 | -2.65666 | 9883 ft | 156 kts | 252° |
| 2026-05-08 12:48 | 43.34108 | -2.67127 | 9882 ft | 156 kts | 252° |
| 2026-05-08 12:48 | 43.33898 | -2.68595 | 9886 ft | 156 kts | 252° |
| 2026-05-08 12:48 | 43.33686 | -2.70063 | 9889 ft | 157 kts | 252° |
| 2026-05-08 12:48 | 43.33475 | -2.71510 | 9890 ft | 156 kts | 252° |
| 2026-05-08 12:49 | 43.33263 | -2.72978 | 9886 ft | 157 kts | 252° |
| 2026-05-08 12:49 | 43.33052 | -2.74451 | 9884 ft | 157 kts | 252° |
| 2026-05-08 12:49 | 43.32840 | -2.75919 | 9888 ft | 157 kts | 252° |
| 2026-05-08 12:49 | 43.32624 | -2.77393 | 9885 ft | 157 kts | 252° |
| 2026-05-08 12:50 | 43.32411 | -2.78868 | 9872 ft | 157 kts | 251° |
| 2026-05-08 12:50 | 43.32217 | -2.80256 | 9872 ft | 140 kts | 251° |
| 2026-05-08 12:50 | 43.32038 | -2.81500 | 9875 ft | 127 kts | 250° |
| 2026-05-08 12:50 | 43.31868 | -2.82652 | 9878 ft | 119 kts | 249° |
| 2026-05-08 12:51 | 43.31707 | -2.83746 | 9877 ft | 114 kts | 249° |
| 2026-05-08 12:51 | 43.31420 | -2.85713 | 9889 ft | 98 kts | 247° |
| 2026-05-08 12:51 | 43.31285 | -2.86627 | 9886 ft | 97 kts | 247° |
| 2026-05-08 12:52 | 43.31153 | -2.87526 | 9887 ft | 96 kts | 247° |
| 2026-05-08 12:52 | 43.30892 | -2.89303 | 9885 ft | 95 kts | 247° |
| 2026-05-08 12:52 | 43.30762 | -2.90189 | 9886 ft | 95 kts | 247° |
| 2026-05-08 12:53 | 43.30633 | -2.91072 | 9884 ft | 94 kts | 247° |
| 2026-05-08 12:53 | 43.30503 | -2.91959 | 9887 ft | 95 kts | 248° |
| 2026-05-08 12:53 | 43.30399 | -2.92847 | 9881 ft | 99 kts | 260° |
| 2026-05-08 12:53 | 43.30635 | -2.93767 | 9879 ft | 109 kts | 300° |
| 2026-05-08 12:54 | 43.31280 | -2.94328 | 9881 ft | 114 kts | 345° |
| 2026-05-08 12:54 | 43.32056 | -2.94234 | 9892 ft | 112 kts | 30° |
| 2026-05-08 12:54 | 43.32598 | -2.93541 | 9896 ft | 103 kts | 75° |
| 2026-05-08 12:54 | 43.32747 | -2.92628 | 9895 ft | 98 kts | 94° |
| 2026-05-08 12:55 | 43.32848 | -2.91688 | 9895 ft | 100 kts | 93° |
| 2026-05-08 12:55 | 43.32962 | -2.90733 | 9893 ft | 102 kts | 91° |
| 2026-05-08 12:55 | 43.33087 | -2.89773 | 9890 ft | 102 kts | 91° |
| 2026-05-08 12:55 | 43.33213 | -2.88838 | 9883 ft | 100 kts | 91° |
| 2026-05-08 12:56 | 43.33227 | -2.87950 | 9877 ft | 87 kts | 117° |
| 2026-05-08 12:56 | 43.32955 | -2.87273 | 9882 ft | 78 kts | 143° |
| 2026-05-08 12:56 | 43.32527 | -2.86884 | 9879 ft | 72 kts | 164° |
| 2026-05-08 12:56 | 43.32048 | -2.86807 | 9860 ft | 71 kts | 189° |
| 2026-05-08 12:57 | 43.31592 | -2.87175 | 9896 ft | 82 kts | 210° |
| 2026-05-08 12:57 | 43.31227 | -2.87882 | 9912 ft | 97 kts | 236° |
| 2026-05-08 12:57 | 43.30994 | -2.88849 | 9898 ft | 114 kts | 246° |
| 2026-05-08 12:57 | 43.30792 | -2.89988 | 9892 ft | 132 kts | 250° |
| 2026-05-08 12:58 | 43.30596 | -2.91268 | 9893 ft | 145 kts | 252° |
| 2026-05-08 12:58 | 43.30417 | -2.92674 | 9890 ft | 155 kts | 259° |
| 2026-05-08 12:58 | 43.30745 | -2.94139 | 9891 ft | 171 kts | 301° |
| 2026-05-08 12:58 | 43.31741 | -2.95061 | 9893 ft | 177 kts | 343° |
| 2026-05-08 12:59 | 43.32931 | -2.94958 | 9895 ft | 171 kts | 27° |
| 2026-05-08 12:59 | 43.33758 | -2.93926 | 9886 ft | 156 kts | 70° |
| 2026-05-08 12:59 | 43.33942 | -2.92542 | 9846 ft | 143 kts | 104° |
| 2026-05-08 12:59 | 43.33573 | -2.91364 | 9782 ft | 127 kts | 138° |
| 2026-05-08 13:00 | 43.32864 | -2.90701 | 9850 ft | 127 kts | 160° |
| 2026-05-08 13:00 | 43.32011 | -2.90572 | 10012 ft | 125 kts | 186° |
| 2026-05-08 13:00 | 43.31166 | -2.91073 | 10005 ft | 140 kts | 213° |
| 2026-05-08 13:00 | 43.30576 | -2.92158 | 10139 ft | 147 kts | 240° |
| 2026-05-08 13:01 | 43.30424 | -2.93573 | 10277 ft | 153 kts | 264° |
| 2026-05-08 13:01 | 43.30395 | -2.95100 | 10152 ft | 166 kts | 260° |
| 2026-05-08 13:01 | 43.30329 | -2.96723 | 10032 ft | 174 kts | 261° |
| 2026-05-08 13:01 | 43.30278 | -2.98409 | 9910 ft | 179 kts | 262° |
| 2026-05-08 13:02 | 43.30231 | -3.00112 | 9890 ft | 176 kts | 262° |
| 2026-05-08 13:02 | 43.30186 | -3.01758 | 9891 ft | 174 kts | 261° |
| 2026-05-08 13:02 | 43.30138 | -3.03409 | 9889 ft | 172 kts | 261° |
| 2026-05-08 13:02 | 43.30090 | -3.05038 | 9892 ft | 170 kts | 261° |
| 2026-05-08 13:03 | 43.30044 | -3.06664 | 9891 ft | 171 kts | 261° |
| 2026-05-08 13:03 | 43.29989 | -3.08291 | 9890 ft | 170 kts | 261° |
| 2026-05-08 13:03 | 43.29942 | -3.09903 | 9893 ft | 168 kts | 262° |
| 2026-05-08 13:03 | 43.29897 | -3.11513 | 9893 ft | 169 kts | 259° |
| 2026-05-08 13:04 | 43.29846 | -3.13129 | 9895 ft | 170 kts | 259° |
| 2026-05-08 13:04 | 43.29794 | -3.14727 | 9759 ft | 174 kts | 259° |
| 2026-05-08 13:04 | 43.29739 | -3.16428 | 9465 ft | 182 kts | 260° |
| 2026-05-08 13:04 | 43.29686 | -3.18189 | 9171 ft | 186 kts | 262° |
| 2026-05-08 13:05 | 43.29638 | -3.19969 | 8832 ft | 186 kts | 261° |
| 2026-05-08 13:05 | 43.29582 | -3.21738 | 8485 ft | 186 kts | 261° |
| 2026-05-08 13:05 | 43.29524 | -3.23498 | 8167 ft | 184 kts | 262° |
| 2026-05-08 13:05 | 43.29471 | -3.25254 | 7843 ft | 183 kts | 261° |
| 2026-05-08 13:06 | 43.29415 | -3.26990 | 7514 ft | 181 kts | 261° |
| 2026-05-08 13:06 | 43.29357 | -3.28710 | 7274 ft | 180 kts | 261° |
| 2026-05-08 13:06 | 43.29311 | -3.30402 | 6899 ft | 180 kts | 262° |
| 2026-05-08 13:06 | 43.29414 | -3.32120 | 6595 ft | 183 kts | 277° |
| 2026-05-08 13:07 | 43.29822 | -3.33761 | 6351 ft | 179 kts | 284° |
| 2026-05-08 13:07 | 43.30250 | -3.35337 | 6115 ft | 174 kts | 283° |
| 2026-05-08 13:07 | 43.30676 | -3.36912 | 5880 ft | 178 kts | 283° |
| 2026-05-08 13:07 | 43.31113 | -3.38510 | 5640 ft | 178 kts | 283° |
| 2026-05-08 13:08 | 43.31546 | -3.40098 | 5398 ft | 177 kts | 282° |
| 2026-05-08 13:08 | 43.31966 | -3.41643 | 5260 ft | 170 kts | 282° |
| 2026-05-08 13:08 | 43.32371 | -3.43172 | 5032 ft | 170 kts | 280° |
| 2026-05-08 13:08 | 43.32745 | -3.44693 | 4824 ft | 170 kts | 279° |
| 2026-05-08 13:09 | 43.33139 | -3.46221 | 4618 ft | 169 kts | 280° |
| 2026-05-08 13:09 | 43.33526 | -3.47748 | 4419 ft | 169 kts | 281° |
| 2026-05-08 13:09 | 43.33911 | -3.49268 | 4119 ft | 169 kts | 278° |
| 2026-05-08 13:09 | 43.34400 | -3.50717 | 4073 ft | 167 kts | 292° |
| 2026-05-08 13:10 | 43.35059 | -3.51990 | 4004 ft | 159 kts | 287° |
| 2026-05-08 13:10 | 43.35559 | -3.53328 | 3913 ft | 154 kts | 285° |
| 2026-05-08 13:10 | 43.36039 | -3.54642 | 3814 ft | 153 kts | 286° |
| 2026-05-08 13:10 | 43.36494 | -3.55935 | 3711 ft | 150 kts | 282° |
| 2026-05-08 13:11 | 43.36750 | -3.57284 | 3500 ft | 139 kts | 261° |
| 2026-05-08 13:11 | 43.36760 | -3.58603 | 3332 ft | 139 kts | 259° |
| 2026-05-08 13:11 | 43.36888 | -3.59920 | 3158 ft | 141 kts | 276° |
| 2026-05-08 13:11 | 43.37177 | -3.61203 | 2977 ft | 143 kts | 277° |
| 2026-05-08 13:12 | 43.37496 | -3.62508 | 2773 ft | 144 kts | 280° |
| 2026-05-08 13:12 | 43.37828 | -3.63770 | 2565 ft | 131 kts | 284° |
| 2026-05-08 13:12 | 43.38147 | -3.64894 | 2423 ft | 129 kts | 281° |
| 2026-05-08 13:12 | 43.38448 | -3.66087 | 2236 ft | 138 kts | 281° |
| 2026-05-08 13:13 | 43.38788 | -3.67328 | 2066 ft | 140 kts | 282° |
| 2026-05-08 13:13 | 43.39122 | -3.68601 | 1882 ft | 144 kts | 283° |
| 2026-05-08 13:13 | 43.39478 | -3.69894 | 1674 ft | 143 kts | 281° |
| 2026-05-08 13:13 | 43.39814 | -3.71188 | 1474 ft | 144 kts | 281° |
| 2026-05-08 13:14 | 43.40159 | -3.72471 | 1272 ft | 139 kts | 280° |
| 2026-05-08 13:14 | 43.40482 | -3.73684 | 1102 ft | 134 kts | 284° |
| 2026-05-08 13:14 | 43.40802 | -3.74872 | 932 ft | 131 kts | 284° |
| 2026-05-08 13:14 | 43.41113 | -3.76042 | 783 ft | 129 kts | 284° |
| 2026-05-08 13:15 | 43.41406 | -3.77139 | 606 ft | 118 kts | 288° |
| 2026-05-08 13:15 | 43.41631 | -3.78049 | 416 ft | 86 kts | 289° |
| 2026-05-08 13:15 | 43.41877 | -3.78706 | 332 ft | 71 kts | 288° |
| 2026-05-08 13:15 | 43.42001 | -3.79380 | 256 ft | 73 kts | 286° |
| 2026-05-08 13:16 | 43.42184 | -3.80047 | 170 ft | 76 kts | 292° |
| 2026-05-08 13:16 | 43.42362 | -3.80726 | 52 ft | 74 kts | 292° |
| 2026-05-08 13:16 | 43.42530 | -3.81335 | 16 ft | 55 kts | 290° |
| 2026-05-08 13:16 | 43.42637 | -3.81738 | 15 ft | 36 kts | 290° |
| 2026-05-08 13:17 | 43.42709 | -3.82005 | 13 ft | 25 kts | 291° |
| 2026-05-08 13:17 | 43.42748 | -3.82178 | 12 ft | 14 kts | 265° |
| 2026-05-08 13:17 | 43.42679 | -3.82252 | 13 ft | 14 kts | 200° |
| 2026-05-08 13:17 | 43.42578 | -3.82303 | 13 ft | 15 kts | 198° |
| 2026-05-08 13:18 | 43.42537 | -3.82322 | 13 ft | 6 kts | 200° |
| 2026-05-08 13:18 | 43.42514 | -3.82333 | 13 ft | 0 kts | 200° |
| 2026-05-08 13:18 | 43.42468 | -3.82357 | 13 ft | 8 kts | 197° |
| 2026-05-08 13:18 | 43.42464 | -3.82426 | 13 ft | 10 kts | 289° |
| 2026-05-08 13:19 | 43.42486 | -3.82506 | 13 ft | 8 kts | 284° |
| 2026-05-08 13:19 | 43.42468 | -3.82547 | 13 ft | 5 kts | 288° |
| 2026-05-08 13:19 | 43.42470 | -3.82580 | 13 ft | 0 kts | 202° |
| 2026-05-08 13:19 | 43.42445 | -3.82595 | 13 ft | 4 kts | 281° |
| 2026-05-08 13:20 | 43.42451 | -3.82615 | 13 ft | 0 kts | 288° |
| 2026-05-08 13:20 | 43.42454 | -3.82627 | 13 ft | 0 kts | 290° |